Time;durP1;ratioP1;P1;durP2;ratioP2;P2;SDS_P1;SDS_P2;PMS_P1;PMS_P2;Temp;Humidity;BMP_temperature;BMP_pressure;BME280_temperature;BME280_humidity;BME280_pressure;Samples;Min_cycle;Max_cycle;Signal;HPM_P1;HPM_P2
2022/02/14 00:00:29;;;;;;;19.30;10.10;;;;;;;-1.10;77.77;100568.61;108663;1280;138435;-59
2022/02/14 00:02:57;;;;;;;23.90;11.00;;;;;;;-1.13;77.65;100571.73;108796;1280;22439;-58
2022/02/14 00:05:25;;;;;;;19.10;10.80;;;;;;;-1.14;77.73;100571.48;108559;1281;138391;-58
2022/02/14 00:07:53;;;;;;;19.20;9.80;;;;;;;-1.17;77.72;100567.67;108774;1281;22448;-58
2022/02/14 00:10:24;;;;;;;19.50;10.00;;;;;;;-1.19;77.78;100570.80;108959;1281;23285;-59
2022/02/14 00:12:52;;;;;;;17.30;8.80;;;;;;;-1.22;77.81;100574.85;108659;1280;138521;-59
2022/02/14 00:15:35;;;;;;;22.00;9.60;;;;;;;-1.23;77.72;100575.98;108891;1280;23221;-59
2022/02/14 00:18:03;;;;;;;17.10;8.20;;;;;;;-1.22;77.67;100573.02;108831;1281;139140;-59
2022/02/14 00:20:51;;;;;;;15.10;9.00;;;;;;;-1.21;77.59;100566.88;108795;1280;22469;-59
2022/02/14 00:23:20;;;;;;;15.50;8.50;;;;;;;-1.22;77.70;100566.92;108782;1280;22444;-59
2022/02/14 00:25:48;;;;;;;18.50;8.40;;;;;;;-1.24;77.54;100560.63;108768;1281;139408;-59
2022/02/14 00:28:17;;;;;;;18.20;10.20;;;;;;;-1.24;77.64;100556.12;108876;1281;22492;-59
2022/02/14 00:30:44;;;;;;;16.70;9.40;;;;;;;-1.26;77.56;100555.33;108774;1280;138582;-59
2022/02/14 00:33:13;;;;;;;20.00;10.50;;;;;;;-1.28;77.42;100547.83;108775;1281;22463;-59
2022/02/14 00:35:41;;;;;;;18.80;10.90;;;;;;;-1.31;77.54;100542.95;108653;1281;138242;-59
2022/02/14 00:38:10;;;;;;;17.20;9.60;;;;;;;-1.32;77.51;100534.89;108882;1280;22600;-59
2022/02/14 00:40:39;;;;;;;16.70;9.30;;;;;;;-1.34;77.56;100536.31;108914;1279;22469;-59
2022/02/14 00:43:07;;;;;;;20.60;11.10;;;;;;;-1.36;77.54;100535.69;108745;1281;137355;-58
2022/02/14 00:45:35;;;;;;;19.30;9.20;;;;;;;-1.37;77.50;100534.90;108968;1280;22677;-59
2022/02/14 00:48:04;;;;;;;18.40;8.80;;;;;;;-1.41;77.46;100536.67;108768;1281;138608;-59
2022/02/14 00:50:32;;;;;;;19.50;9.40;;;;;;;-1.42;77.46;100535.54;108870;1280;23494;-59
2022/02/14 00:53:00;;;;;;;14.20;8.00;;;;;;;-1.42;77.47;100535.89;108898;1281;22599;-59
2022/02/14 00:55:28;;;;;;;14.60;8.20;;;;;;;-1.42;77.46;100532.69;108762;1281;138102;-59
2022/02/14 00:57:56;;;;;;;14.90;7.90;;;;;;;-1.42;77.38;100531.20;108909;1280;22446;-59
2022/02/14 01:00:24;;;;;;;18.50;8.40;;;;;;;-1.42;77.45;100525.88;108807;1279;138092;-59
2022/02/14 01:02:52;;;;;;;17.50;8.10;;;;;;;-1.41;77.37;100525.63;108920;1281;23199;-59
2022/02/14 01:05:20;;;;;;;16.90;9.10;;;;;;;-1.43;77.35;100524.54;108874;1280;23267;-59
2022/02/14 01:07:48;;;;;;;16.60;8.20;;;;;;;-1.43;77.37;100523.46;108722;1281;137054;-59
2022/02/14 01:10:16;;;;;;;17.30;9.00;;;;;;;-1.44;77.29;100519.52;108875;1280;22438;-59
2022/02/14 01:12:44;;;;;;;19.20;9.10;;;;;;;-1.45;77.51;100519.98;108720;1281;137320;-59
2022/02/14 01:15:13;;;;;;;16.30;8.60;;;;;;;-1.45;77.39;100515.75;108846;1281;22437;-59
2022/02/14 01:17:41;;;;;;;12.00;7.50;;;;;;;-1.46;77.37;100515.58;108847;1279;138617;-59
2022/02/14 01:20:11;;;;;;;18.10;9.30;;;;;;;-1.47;77.20;100514.80;108839;1279;22541;-59
2022/02/14 01:22:40;;;;;;;18.40;8.60;;;;;;;-1.48;77.23;100510.98;108873;1281;22411;-58
2022/02/14 01:25:09;;;;;;;16.30;8.00;;;;;;;-1.48;77.39;100510.52;108741;1280;138939;-59
2022/02/14 01:27:38;;;;;;;15.20;8.20;;;;;;;-1.50;77.14;100508.23;108914;1280;22478;-59
2022/02/14 01:30:07;;;;;;;17.70;8.50;;;;;;;-1.53;77.23;100508.14;108751;1281;138376;-58
2022/02/14 01:32:35;;;;;;;14.00;7.30;;;;;;;-1.55;77.46;100502.60;108836;1280;23281;-59
2022/02/14 01:35:04;;;;;;;14.60;7.70;;;;;;;-1.54;77.51;100498.44;108865;1280;23349;-59
2022/02/14 01:37:32;;;;;;;16.50;8.00;;;;;;;-1.53;77.42;100496.88;108784;1281;138890;-59
2022/02/14 01:40:01;;;;;;;17.30;8.20;;;;;;;-1.53;77.47;100495.50;108936;1280;22484;-58
2022/02/14 01:42:30;;;;;;;15.40;8.70;;;;;;;-1.53;77.53;100497.51;108756;1281;138593;-58
2022/02/14 01:44:59;;;;;;;17.20;10.20;;;;;;;-1.53;77.59;100494.77;108905;1280;23795;-58
2022/02/14 01:47:27;;;;;;;15.70;8.90;;;;;;;-1.52;77.38;100493.80;108756;1280;138636;-59
2022/02/14 01:49:55;;;;;;;15.70;8.70;;;;;;;-1.54;77.48;100491.62;108882;1281;22548;-59
2022/02/14 01:52:23;;;;;;;15.50;8.00;;;;;;;-1.55;77.53;100491.41;108907;1280;22461;-59
2022/02/14 01:54:51;;;;;;;13.70;8.20;;;;;;;-1.56;77.55;100487.96;108787;1280;137680;-59
2022/02/14 01:57:19;;;;;;;14.80;8.80;;;;;;;-1.58;77.48;100483.71;108872;1280;22564;-59
2022/02/14 01:59:47;;;;;;;15.70;8.60;;;;;;;-1.61;77.50;100479.94;108826;1280;138452;-59
2022/02/14 02:02:15;;;;;;;14.80;7.50;;;;;;;-1.63;77.23;100475.48;108877;1281;22445;-59
2022/02/14 02:04:44;;;;;;;14.30;8.50;;;;;;;-1.64;77.53;100467.98;108812;1281;22539;-58
2022/02/14 02:07:13;;;;;;;13.10;8.20;;;;;;;-1.64;77.58;100469.25;108706;1279;140748;-58
2022/02/14 02:09:44;;;;;;;19.90;9.00;;;;;;;-1.65;77.48;100466.64;108824;1280;23561;-59
2022/02/14 02:12:25;;;;;;;16.50;9.00;;;;;;;-1.65;77.62;100466.34;108736;1281;139289;-58
2022/02/14 02:15:00;;;;;;;19.30;8.20;;;;;;;-1.66;77.54;100460.35;108733;1281;22468;-59
2022/02/14 02:17:35;;;;;;;18.80;8.60;;;;;;;-1.67;77.67;100462.34;108601;1281;139136;-59
2022/02/14 02:20:06;;;;;;;15.30;8.60;;;;;;;-1.66;77.68;100463.05;108874;1280;22426;-59
2022/02/14 02:22:34;;;;;;;19.40;9.30;;;;;;;-1.68;77.53;100461.63;108903;1279;22414;-59
2022/02/14 02:25:02;;;;;;;17.30;8.30;;;;;;;-1.72;77.72;100461.61;108781;1280;138075;-59
2022/02/14 02:27:31;;;;;;;17.60;9.10;;;;;;;-1.70;77.54;100461.42;108835;1281;22909;-59
2022/02/14 02:30:00;;;;;;;16.20;8.60;;;;;;;-1.71;77.69;100458.16;108750;1281;137972;-59
2022/02/14 02:32:29;;;;;;;16.80;7.90;;;;;;;-1.72;77.65;100461.50;108894;1280;22450;-58
2022/02/14 02:34:58;;;;;;;15.90;8.60;;;;;;;-1.73;77.75;100457.25;108873;1280;22271;-59
2022/02/14 02:37:26;;;;;;;14.10;7.40;;;;;;;-1.77;77.55;100452.90;108781;1279;138088;-59
2022/02/14 02:39:55;;;;;;;17.00;8.10;;;;;;;-1.79;77.55;100451.01;108905;1279;23187;-60
2022/02/14 02:42:23;;;;;;;15.80;8.60;;;;;;;-1.80;77.50;100454.41;108780;1279;140277;-61
2022/02/14 02:44:52;;;;;;;20.90;8.60;;;;;;;-1.81;77.42;100448.48;108840;1281;22494;-60
2022/02/14 02:47:21;;;;;;;15.00;7.40;;;;;;;-1.82;77.59;100450.31;108680;1281;23159;-60
2022/02/14 02:49:49;;;;;;;16.00;8.70;;;;;;;-1.83;77.58;100451.14;108746;1281;138769;-60
2022/02/14 02:52:17;;;;;;;14.60;7.40;;;;;;;-1.84;77.64;100451.96;108912;1280;22571;-60
2022/02/14 02:54:46;;;;;;;10.90;6.60;;;;;;;-1.83;77.74;100449.58;108760;1281;138886;-60
2022/02/14 02:57:14;;;;;;;17.50;8.50;;;;;;;-1.81;77.65;100445.09;108686;1281;22481;-61
2022/02/14 02:59:42;;;;;;;13.50;7.50;;;;;;;-1.80;77.75;100444.06;108804;1279;139856;-60
2022/02/14 03:02:10;;;;;;;15.00;8.40;;;;;;;-1.79;77.70;100437.59;108698;1281;22488;-61
2022/02/14 03:04:40;;;;;;;18.40;9.00;;;;;;;-1.79;77.62;100437.08;108728;1280;22484;-61
2022/02/14 03:07:08;;;;;;;16.70;8.90;;;;;;;-1.80;77.75;100438.91;108609;1281;138291;-60
2022/02/14 03:09:36;;;;;;;17.60;9.60;;;;;;;-1.81;77.79;100436.70;108843;1280;22553;-60
2022/02/14 03:12:04;;;;;;;15.00;8.70;;;;;;;-1.81;77.68;100433.89;108606;1281;138939;-60
2022/02/14 03:14:33;;;;;;;16.00;8.60;;;;;;;-1.82;77.51;100430.77;108877;1281;22555;-60
2022/02/14 03:17:01;;;;;;;20.80;9.70;;;;;;;-1.83;77.51;100434.45;108847;1280;23371;-60
2022/02/14 03:19:29;;;;;;;17.50;8.80;;;;;;;-1.84;77.57;100432.97;108758;1281;138576;-60
2022/02/14 03:21:57;;;;;;;14.50;8.40;;;;;;;-1.86;77.62;100437.20;108869;1281;22526;-60
2022/02/14 03:24:26;;;;;;;18.20;9.20;;;;;;;-1.87;77.54;100438.46;108775;1280;140200;-60
2022/02/14 03:26:54;;;;;;;15.60;8.50;;;;;;;-1.88;77.36;100440.47;108880;1280;22533;-60
2022/02/14 03:29:22;;;;;;;22.60;8.30;;;;;;;-1.88;77.50;100443.74;108735;1281;22521;-60
2022/02/14 03:31:50;;;;;;;17.90;8.20;;;;;;;-1.89;77.60;100440.63;108703;1280;138568;-60
2022/02/14 03:34:18;;;;;;;15.60;8.50;;;;;;;-1.88;77.80;100442.43;108818;1279;22534;-60
2022/02/14 03:36:46;;;;;;;18.30;8.80;;;;;;;-1.87;77.79;100433.24;108707;1281;139189;-60
2022/02/14 03:39:14;;;;;;;18.50;8.90;;;;;;;-1.87;77.72;100432.52;108825;1280;22495;-59
2022/02/14 03:41:42;;;;;;;19.80;9.10;;;;;;;-1.88;77.72;100430.39;108740;1280;139667;-58
2022/02/14 03:44:09;;;;;;;18.40;11.10;;;;;;;-1.91;77.64;100434.17;108920;1280;23163;-58
2022/02/14 03:46:38;;;;;;;22.20;9.30;;;;;;;-1.91;77.71;100433.36;108850;1280;22375;-58
2022/02/14 03:49:07;;;;;;;21.00;10.30;;;;;;;-1.93;77.75;100428.01;108525;1281;137805;-58
2022/02/14 03:51:35;;;;;;;23.80;10.30;;;;;;;-1.96;77.59;100422.04;108838;1281;22552;-58
2022/02/14 03:54:04;;;;;;;20.20;9.70;;;;;;;-1.97;77.82;100418.11;108726;1280;138606;-58
2022/02/14 03:56:32;;;;;;;18.70;9.70;;;;;;;-2.00;77.77;100413.22;108688;1281;22716;-58
2022/02/14 03:59:00;;;;;;;18.70;10.50;;;;;;;-2.03;77.71;100415.84;108824;1279;23270;-58
2022/02/14 04:01:28;;;;;;;23.70;9.80;;;;;;;-2.09;77.85;100413.59;108708;1281;138844;-58
2022/02/14 04:03:56;;;;;;;16.50;8.50;;;;;;;-2.08;77.92;100413.17;108850;1281;22602;-58
2022/02/14 04:06:24;;;;;;;15.30;7.80;;;;;;;-2.09;77.82;100411.45;108712;1281;139939;-58
2022/02/14 04:08:52;;;;;;;15.30;7.60;;;;;;;-2.08;78.13;100409.80;108826;1281;22473;-58
2022/02/14 04:11:20;;;;;;;15.60;7.70;;;;;;;-2.07;78.05;100409.67;108849;1280;23430;-59
2022/02/14 04:13:48;;;;;;;14.80;7.50;;;;;;;-2.06;78.04;100408.05;108725;1281;139676;-58
2022/02/14 04:16:17;;;;;;;21.00;9.40;;;;;;;-2.05;78.14;100403.77;108841;1281;23454;-59
2022/02/14 04:18:45;;;;;;;16.90;7.50;;;;;;;-2.04;78.09;100408.80;108788;1280;138590;-58
2022/02/14 04:21:12;;;;;;;26.20;9.20;;;;;;;-2.03;78.35;100405.41;108803;1280;22632;-59
2022/02/14 04:23:41;;;;;;;18.10;7.60;;;;;;;-2.02;78.26;100401.61;108672;1280;139172;-59
2022/02/14 04:26:09;;;;;;;16.90;8.10;;;;;;;-2.03;78.19;100401.64;108903;1280;22462;-58
2022/02/14 04:28:37;;;;;;;21.10;8.50;;;;;;;-2.04;78.12;100406.00;108847;1279;22491;-59
2022/02/14 04:31:05;;;;;;;19.40;7.80;;;;;;;-2.05;78.10;100406.69;108701;1281;138815;-59
2022/02/14 04:33:33;;;;;;;18.10;9.70;;;;;;;-2.09;77.87;100415.20;108875;1280;23203;-59
2022/02/14 04:36:01;;;;;;;17.40;8.10;;;;;;;-2.11;78.01;100413.97;108743;1280;138015;-59
2022/02/14 04:38:29;;;;;;;22.80;9.70;;;;;;;-2.12;78.08;100416.59;108778;1278;22904;-58
2022/02/14 04:40:57;;;;;;;26.40;10.70;;;;;;;-2.12;78.25;100415.05;108889;1281;22459;-60
2022/02/14 04:43:24;;;;;;;22.10;9.60;;;;;;;-2.14;78.16;100415.18;108811;1280;138580;-60
2022/02/14 04:45:53;;;;;;;16.40;9.70;;;;;;;-2.18;78.06;100413.08;108927;1280;23234;-60
2022/02/14 04:48:23;;;;;;;20.50;9.00;;;;;;;-2.16;78.02;100425.14;108611;1281;138363;-60
2022/02/14 04:50:51;;;;;;;20.00;11.00;;;;;;;-2.16;78.05;100422.54;108923;1279;22482;-60
2022/02/14 04:53:19;;;;;;;25.60;11.40;;;;;;;-2.17;78.23;100423.68;108838;1281;22801;-60
2022/02/14 04:55:47;;;;;;;26.40;11.20;;;;;;;-2.17;78.20;100426.59;108809;1279;139131;-60
2022/02/14 04:58:15;;;;;;;23.80;10.00;;;;;;;-2.19;78.12;100428.20;108827;1280;22468;-60
2022/02/14 05:00:43;;;;;;;33.70;12.20;;;;;;;-2.21;78.18;100430.88;108735;1279;139391;-60
2022/02/14 05:03:12;;;;;;;27.90;11.30;;;;;;;-2.24;78.06;100431.01;108968;1280;22284;-60
2022/02/14 05:05:42;;;;;;;24.30;10.30;;;;;;;-2.27;78.26;100433.05;108713;1280;138488;-60
2022/02/14 05:08:10;;;;;;;30.50;12.80;;;;;;;-2.28;78.43;100434.18;108888;1280;22504;-60
2022/02/14 05:10:38;;;;;;;24.70;11.80;;;;;;;-2.28;78.49;100439.02;108876;1280;22467;-60
2022/02/14 05:13:06;;;;;;;31.20;13.80;;;;;;;-2.30;78.46;100442.84;108778;1280;137870;-60
2022/02/14 05:15:34;;;;;;;36.10;14.00;;;;;;;-2.32;78.55;100445.30;108912;1279;22254;-60
2022/02/14 05:18:02;;;;;;;31.00;13.70;;;;;;;-2.34;78.48;100444.42;108770;1280;139148;-59
2022/02/14 05:20:30;;;;;;;29.80;12.70;;;;;;;-2.33;78.46;100448.65;108908;1281;22396;-60
2022/02/14 05:22:58;;;;;;;37.40;11.70;;;;;;;-2.34;78.42;100448.58;108916;1280;23381;-60
2022/02/14 05:25:26;;;;;;;29.10;12.90;;;;;;;-2.35;78.57;100449.40;108790;1280;138672;-60
2022/02/14 05:27:53;;;;;;;30.70;12.50;;;;;;;-2.37;78.80;100448.14;108900;1280;22444;-60
2022/02/14 05:30:21;;;;;;;39.70;15.50;;;;;;;-2.37;78.91;100448.42;108661;1281;140403;-60
2022/02/14 05:32:49;;;;;;;35.20;14.20;;;;;;;-2.36;79.12;100450.83;108910;1279;22472;-60
2022/02/14 05:35:17;;;;;;;29.60;12.80;;;;;;;-2.34;79.09;100456.69;108889;1281;22546;-60
2022/02/14 05:37:46;;;;;;;27.70;11.70;;;;;;;-2.32;79.23;100460.47;108813;1281;138643;-60
2022/02/14 05:40:13;;;;;;;32.50;13.80;;;;;;;-2.31;79.18;100466.95;108959;1279;23657;-58
2022/02/14 05:42:43;;;;;;;27.40;13.20;;;;;;;-2.30;79.27;100470.15;108808;1279;139680;-58
2022/02/14 05:45:11;;;;;;;22.90;12.30;;;;;;;-2.28;79.14;100475.17;108914;1280;22404;-58
2022/02/14 05:47:39;;;;;;;29.10;10.50;;;;;;;-2.27;79.18;100477.86;108829;1279;138173;-58
2022/02/14 05:50:07;;;;;;;22.70;10.90;;;;;;;-2.24;79.29;100479.23;108902;1279;22591;-58
2022/02/14 05:52:39;;;;;;;24.10;11.20;;;;;;;-2.24;79.25;100481.86;108945;1278;22491;-59
2022/02/14 05:55:07;;;;;;;20.90;10.70;;;;;;;-2.22;79.40;100483.80;108834;1279;138372;-58
2022/02/14 05:57:35;;;;;;;22.50;11.00;;;;;;;-2.20;79.37;100484.34;108993;1279;22496;-58
2022/02/14 06:00:05;;;;;;;24.80;9.90;;;;;;;-2.18;79.27;100486.37;108798;1279;139324;-58
2022/02/14 06:02:34;;;;;;;24.30;10.20;;;;;;;-2.14;79.39;100487.79;108878;1279;22438;-58
2022/02/14 06:05:04;;;;;;;31.10;12.10;;;;;;;-2.10;79.40;100487.59;108963;1279;22515;-58
2022/02/14 06:07:32;;;;;;;35.20;13.00;;;;;;;-2.06;79.55;100491.25;108812;1279;139546;-58
2022/02/14 06:10:00;;;;;;;30.80;10.90;;;;;;;-2.01;79.49;100491.81;108874;1280;22625;-58
2022/02/14 06:12:29;;;;;;;20.80;9.90;;;;;;;-1.95;79.55;100489.13;108647;1280;138570;-58
2022/02/14 06:15:00;;;;;;;23.90;11.10;;;;;;;-1.89;79.61;100491.29;108945;1280;22600;-58
2022/02/14 06:17:28;;;;;;;28.10;11.50;;;;;;;-1.85;79.54;100485.91;108836;1279;137967;-58
2022/02/14 06:19:56;;;;;;;20.20;9.90;;;;;;;-1.75;79.55;100495.85;108921;1280;22690;-58
2022/02/14 06:22:25;;;;;;;23.50;10.10;;;;;;;-1.70;79.47;100493.48;108963;1279;22469;-58
2022/02/14 06:24:53;;;;;;;18.40;10.00;;;;;;;-1.64;79.20;100492.23;108863;1278;138943;-58
2022/02/14 06:27:21;;;;;;;20.80;9.70;;;;;;;-1.59;79.24;100495.58;108929;1279;22468;-58
2022/02/14 06:29:49;;;;;;;19.90;9.60;;;;;;;-1.56;78.94;100494.15;108841;1280;139079;-58
2022/02/14 06:32:17;;;;;;;16.90;9.00;;;;;;;-1.53;78.98;100492.13;108933;1279;22468;-58
2022/02/14 06:34:46;;;;;;;18.90;8.90;;;;;;;-1.49;79.01;100495.08;108930;1279;22494;-58
2022/02/14 06:37:14;;;;;;;18.30;8.20;;;;;;;-1.43;78.83;100486.13;108624;1281;139733;-58
2022/02/14 06:39:41;;;;;;;22.40;9.10;;;;;;;-1.37;78.65;100487.80;108920;1280;22462;-60
2022/02/14 06:42:12;;;;;;;17.20;8.30;;;;;;;-1.30;78.63;100491.34;108816;1279;139296;-60
2022/02/14 06:44:42;;;;;;;16.80;8.40;;;;;;;-1.24;78.62;100487.48;108972;1279;22293;-60
2022/02/14 06:47:10;;;;;;;19.00;8.40;;;;;;;-1.16;78.66;100490.97;108962;1278;23192;-60
2022/02/14 06:49:38;;;;;;;14.50;8.40;;;;;;;-1.09;78.47;100488.06;108815;1279;138038;-60
2022/02/14 06:52:06;;;;;;;15.10;8.20;;;;;;;-1.02;78.37;100485.76;108900;1280;22504;-60
2022/02/14 06:54:34;;;;;;;18.00;8.70;;;;;;;-0.95;77.94;100482.91;108765;1278;138744;-60
2022/02/14 06:57:02;;;;;;;13.70;8.00;;;;;;;-0.89;78.24;100477.29;108969;1278;23328;-60
2022/02/14 06:59:31;;;;;;;17.80;9.80;;;;;;;-0.83;78.16;100478.58;108870;1279;137981;-60
2022/02/14 07:01:59;;;;;;;17.70;7.80;;;;;;;-0.77;77.90;100481.20;108964;1277;23495;-60
2022/02/14 07:04:27;;;;;;;17.50;8.70;;;;;;;-0.70;77.50;100483.30;109006;1279;22547;-60
2022/02/14 07:06:55;;;;;;;16.20;7.80;;;;;;;-0.65;77.46;100488.31;108914;1277;139595;-60
2022/02/14 07:09:23;;;;;;;17.70;8.50;;;;;;;-0.60;77.24;100482.02;109066;1277;23322;-60
2022/02/14 07:11:51;;;;;;;14.40;7.90;;;;;;;-0.54;77.32;100479.44;108938;1277;138208;-60
2022/02/14 07:14:19;;;;;;;19.90;9.10;;;;;;;-0.47;77.05;100476.73;109092;1277;23179;-60
2022/02/14 07:16:51;;;;;;;19.60;7.20;;;;;;;-0.42;76.82;100475.56;109111;1276;22465;-60
2022/02/14 07:19:19;;;;;;;16.80;8.40;;;;;;;-0.37;76.53;100470.23;109162;1274;138661;-60
2022/02/14 07:21:47;;;;;;;19.40;8.20;;;;;;;-0.30;76.60;100469.05;109271;1275;22618;-60
2022/02/14 07:24:15;;;;;;;13.40;7.20;;;;;;;-0.24;76.35;100465.26;109166;1274;138983;-60
2022/02/14 07:26:43;;;;;;;18.90;8.70;;;;;;;-0.17;76.35;100457.98;109190;1277;22425;-60
2022/02/14 07:29:12;;;;;;;17.10;8.20;;;;;;;-0.10;76.20;100456.80;109264;1275;22534;-60
2022/02/14 07:31:41;;;;;;;15.30;8.00;;;;;;;-0.04;76.13;100456.85;108965;1277;138220;-60
2022/02/14 07:34:10;;;;;;;12.90;7.60;;;;;;;0.02;76.02;100457.41;109110;1277;24176;-60
2022/02/14 07:36:38;;;;;;;16.10;8.30;;;;;;;0.08;75.90;100462.85;109012;1277;137503;-60
2022/02/14 07:39:08;;;;;;;16.20;8.50;;;;;;;0.16;75.73;100461.80;109152;1277;22557;-59
2022/02/14 07:41:36;;;;;;;14.30;7.20;;;;;;;0.21;74.99;100461.56;109011;1277;137885;-58
2022/02/14 07:44:06;;;;;;;14.00;7.40;;;;;;;0.24;74.99;100461.64;109078;1277;23449;-58
2022/02/14 07:46:34;;;;;;;12.60;7.00;;;;;;;0.31;74.59;100464.80;109087;1277;23820;-58
2022/02/14 07:49:02;;;;;;;16.60;7.50;;;;;;;0.36;74.51;100464.61;108987;1276;139271;-58
2022/02/14 07:51:30;;;;;;;14.30;7.20;;;;;;;0.42;74.56;100462.13;109075;1277;22490;-58
2022/02/14 07:53:58;;;;;;;12.50;6.70;;;;;;;0.49;74.35;100459.42;109056;1276;139228;-58
2022/02/14 07:56:26;;;;;;;12.00;6.90;;;;;;;0.55;74.01;100462.35;109109;1277;22465;-59
2022/02/14 07:58:57;;;;;;;13.50;7.30;;;;;;;0.60;73.91;100462.64;109112;1277;22437;-59
2022/02/14 08:01:25;;;;;;;14.30;7.20;;;;;;;0.64;73.44;100464.80;109012;1277;138274;-58
2022/02/14 08:03:53;;;;;;;13.20;6.60;;;;;;;0.70;73.76;100463.48;109098;1277;22533;-58
2022/02/14 08:06:32;;;;;;;14.30;8.40;;;;;;;0.77;73.55;100465.90;108969;1277;137655;-58
2022/02/14 08:09:00;;;;;;;13.60;6.80;;;;;;;0.82;73.06;100465.84;109113;1277;23313;-59
2022/02/14 08:11:30;;;;;;;16.10;7.90;;;;;;;0.88;72.89;100466.24;109000;1277;138788;-59
2022/02/14 08:13:58;;;;;;;13.50;8.10;;;;;;;0.93;72.85;100464.29;109135;1277;22468;-58
2022/02/14 08:16:26;;;;;;;12.10;7.80;;;;;;;0.97;73.01;100464.85;109059;1277;22480;-59
2022/02/14 08:18:54;;;;;;;14.40;8.30;;;;;;;1.01;72.71;100460.80;109063;1276;137673;-59
2022/02/14 08:21:23;;;;;;;11.40;7.30;;;;;;;1.05;72.43;100456.96;109159;1276;22380;-59
2022/02/14 08:23:51;;;;;;;12.60;6.60;;;;;;;1.10;72.16;100454.88;109042;1276;138408;-59
2022/02/14 08:26:21;;;;;;;15.70;7.30;;;;;;;1.15;72.29;100450.48;109217;1275;22491;-58
2022/02/14 08:28:49;;;;;;;12.20;6.70;;;;;;;1.21;71.85;100459.11;109174;1275;22459;-59
2022/02/14 08:31:18;;;;;;;13.40;6.30;;;;;;;1.27;71.84;100458.02;109041;1276;139316;-58
2022/02/14 08:33:45;;;;;;;15.90;7.00;;;;;;;1.34;71.42;100463.67;109254;1276;22244;-58
2022/02/14 08:36:24;;;;;;;10.30;5.70;;;;;;;1.39;71.20;100463.42;109047;1276;138041;-58
2022/02/14 08:38:52;;;;;;;14.80;7.50;;;;;;;1.45;70.96;100465.88;109165;1276;22343;-59
2022/02/14 08:41:20;;;;;;;13.00;7.60;;;;;;;1.49;71.25;100465.41;109152;1277;22502;-60
2022/02/14 08:43:48;;;;;;;15.20;7.30;;;;;;;1.57;71.41;100464.64;109051;1276;139286;-60
2022/02/14 08:46:21;;;;;;;15.20;8.40;;;;;;;1.63;71.05;100469.63;109164;1275;22537;-60
2022/02/14 08:48:49;;;;;;;13.30;7.00;;;;;;;1.69;71.02;100464.94;109029;1276;138318;-60
2022/02/14 08:51:20;;;;;;;11.30;6.40;;;;;;;1.75;70.41;100467.67;109093;1276;22547;-60
2022/02/14 08:53:49;;;;;;;15.70;7.20;;;;;;;1.79;70.16;100463.48;109009;1276;137932;-60
2022/02/14 08:56:17;;;;;;;10.70;5.20;;;;;;;1.82;69.93;100465.32;109214;1276;22444;-60
2022/02/14 08:58:48;;;;;;;11.10;6.50;;;;;;;1.84;69.60;100468.51;109234;1276;23335;-60
2022/02/14 09:01:17;;;;;;;9.70;5.70;;;;;;;1.86;69.45;100472.56;109038;1276;138648;-60
2022/02/14 09:03:46;;;;;;;10.10;6.40;;;;;;;1.88;69.17;100478.04;109133;1276;22629;-60
2022/02/14 09:06:14;;;;;;;12.50;6.40;;;;;;;1.89;69.06;100479.56;109026;1276;137814;-61
2022/02/14 09:08:42;;;;;;;15.70;7.70;;;;;;;1.90;69.18;100484.36;109196;1276;22515;-61
2022/02/14 09:11:10;;;;;;;14.60;6.50;;;;;;;1.93;68.89;100480.86;109170;1277;23647;-61
2022/02/14 09:13:39;;;;;;;15.80;8.10;;;;;;;1.96;69.00;100481.01;109178;1276;137810;-61
2022/02/14 09:16:09;;;;;;;14.90;7.10;;;;;;;2.01;68.73;100480.65;109170;1276;22485;-61
2022/02/14 09:18:37;;;;;;;11.00;6.50;;;;;;;2.05;68.63;100481.77;108981;1277;138336;-61
2022/02/14 09:21:06;;;;;;;17.30;6.70;;;;;;;2.10;68.55;100476.88;109153;1276;22640;-61
2022/02/14 09:23:36;;;;;;;11.60;6.30;;;;;;;2.14;68.38;100477.25;109036;1276;138540;-61
2022/02/14 09:26:04;;;;;;;13.60;7.00;;;;;;;2.18;68.36;100472.16;109169;1276;22538;-61
2022/02/14 09:28:36;;;;;;;15.50;6.60;;;;;;;2.23;68.03;100473.88;109196;1275;22482;-61
2022/02/14 09:31:05;;;;;;;11.90;6.20;;;;;;;2.26;67.76;100466.02;109018;1277;138518;-61
2022/02/14 09:33:33;;;;;;;10.90;5.90;;;;;;;2.29;67.51;100467.28;109170;1276;22288;-61
2022/02/14 09:36:01;;;;;;;11.10;6.20;;;;;;;2.31;67.08;100467.43;109061;1276;138650;-61
2022/02/14 09:38:29;;;;;;;9.10;6.20;;;;;;;2.34;67.10;100467.42;109141;1276;22445;-61
2022/02/14 09:40:59;;;;;;;13.50;6.50;;;;;;;2.36;66.72;100465.02;109168;1277;23447;-59
2022/02/14 09:43:27;;;;;;;8.70;6.00;;;;;;;2.36;66.75;100462.67;108994;1276;137474;-59
2022/02/14 09:45:55;;;;;;;9.50;5.70;;;;;;;2.39;66.73;100467.24;109110;1277;23294;-59
2022/02/14 09:48:23;;;;;;;13.30;6.10;;;;;;;2.41;66.35;100461.77;108901;1277;139150;-59
2022/02/14 09:50:53;;;;;;;11.90;5.60;;;;;;;2.42;66.40;100462.96;109004;1277;22541;-59
2022/02/14 09:53:21;;;;;;;9.50;6.00;;;;;;;2.44;66.11;100456.90;109120;1277;22644;-59
2022/02/14 09:55:49;;;;;;;12.40;6.40;;;;;;;2.45;66.43;100457.45;109003;1277;137311;-59
2022/02/14 09:58:17;;;;;;;10.10;6.10;;;;;;;2.47;66.50;100455.96;109147;1276;23774;-59
2022/02/14 10:00:46;;;;;;;14.10;5.80;;;;;;;2.50;66.55;100449.87;108960;1277;139060;-59
2022/02/14 10:03:18;;;;;;;10.80;5.80;;;;;;;2.53;66.30;100447.52;109136;1277;23273;-59
2022/02/14 10:05:52;;;;;;;9.70;5.10;;;;;;;2.56;66.17;100444.48;109057;1276;138169;-59
2022/02/14 10:08:22;;;;;;;11.00;5.30;;;;;;;2.57;65.87;100443.06;109146;1276;22420;-59
2022/02/14 10:11:09;;;;;;;10.10;5.20;;;;;;;2.62;65.77;100439.98;109235;1276;22649;-59
2022/02/14 10:13:39;;;;;;;12.90;5.50;;;;;;;2.63;65.30;100437.48;109105;1276;137797;-59
2022/02/14 10:16:12;;;;;;;10.30;4.60;;;;;;;2.65;64.99;100438.21;109249;1276;22440;-59
2022/02/14 10:18:41;;;;;;;9.30;5.10;;;;;;;2.65;64.66;100433.30;109103;1277;139508;-59
2022/02/14 10:21:20;;;;;;;15.30;5.60;;;;;;;2.66;64.76;100426.39;109171;1276;22595;-58
2022/02/14 10:24:01;;;;;;;8.10;5.30;;;;;;;2.66;64.93;100424.12;109073;1277;137524;-59
2022/02/14 10:26:36;;;;;;;13.30;5.50;;;;;;;2.70;64.67;100428.45;109157;1277;22445;-60
2022/02/14 10:29:34;;;;;;;9.20;5.00;;;;;;;2.70;64.61;100421.41;109273;1276;22907;-59
2022/02/14 10:32:09;;;;;;;9.60;5.20;;;;;;;2.74;64.32;100422.00;108611;1281;137833;-59
2022/02/14 10:34:46;;;;;;;10.10;5.70;;;;;;;2.75;64.39;100413.60;108603;1282;22447;-59
2022/02/14 10:37:40;;;;;;;9.80;5.10;;;;;;;2.78;64.78;100409.80;108583;1281;138079;-59
2022/02/14 10:40:10;;;;;;;9.20;5.20;;;;;;;2.81;64.41;100410.35;107949;1281;1059435;-61
2022/02/14 10:47:11;;;;;;;11.30;6.10;;;;;;;2.91;64.15;100408.52;103896;1287;23731;-60
2022/02/14 10:49:41;;;;;;;9.40;5.40;;;;;;;2.91;64.03;100409.52;103847;1287;137126;-60
2022/02/14 10:52:11;;;;;;;10.00;5.60;;;;;;;2.92;64.40;100410.52;103787;1287;25421;-60
2022/02/14 10:54:43;;;;;;;12.90;5.30;;;;;;;2.94;64.17;100412.25;103920;1287;137665;-60
2022/02/14 10:57:26;;;;;;;14.00;6.00;;;;;;;2.94;63.66;100408.98;103862;1286;231701;-60
2022/02/14 11:00:01;;;;;;;10.50;6.50;;;;;;;2.94;63.25;100412.21;104150;1284;138837;-59
2022/02/14 11:02:30;;;;;;;10.10;4.80;;;;;;;2.95;62.83;100411.94;108458;1284;22469;-60
2022/02/14 11:04:58;;;;;;;9.80;5.00;;;;;;;2.95;62.50;100412.64;108472;1282;22440;-60
2022/02/14 11:07:27;;;;;;;8.80;5.30;;;;;;;2.96;62.40;100408.43;108231;1284;137092;-60
2022/02/14 11:09:58;;;;;;;9.50;5.80;;;;;;;2.97;62.26;100408.42;108331;1286;22498;-61
2022/02/14 11:12:31;;;;;;;11.20;5.60;;;;;;;2.99;62.38;100405.71;109065;1277;137322;-60
2022/02/14 11:15:00;;;;;;;12.50;4.80;;;;;;;3.02;62.25;100402.89;109160;1277;22496;-60
2022/02/14 11:17:29;;;;;;;12.80;5.80;;;;;;;3.04;62.33;100405.76;109111;1277;22655;-60
2022/02/14 11:19:59;;;;;;;8.40;4.90;;;;;;;3.05;62.11;100401.33;109079;1277;137692;-60